Latest Weather Observations for Coolangatta

IDQ60801

Issued at 2:05 pm EST Tuesday 23 September 2014 (issued every 30 minutes, with the page automatically refreshed every 10 minutes)

About weather observations | Map of weather stations | Latest weather observations for QLD | Other Formats
Station Details ID: 040717 Name: COOLANGATTA Lat: -28.17 Lon: 153.51 Height: 4.0 m
Data from the previous 72 hours. | See also: Recent months at Coolangatta
Date/Time
EST
Temp
°C
App
Temp
°C
Dew
Point
Rel
Hum
%
Delta-T
°C
Wind Press
QNH
hPa
Press
MSL
hPa
Rain
since 9 am
mm
Dir
 
Spd
km/h
Gust
km/h
Spd
kts
Gust
kts
23/02:00pm 21.7 18.2 10.8 50 6.0 ESE 20 28 11 15 1026.5 1026.5 0.0
23/01:30pm 21.8 18.0 11.2 51 5.8 E 22 32 12 17 1026.8 1026.8 0.0
23/01:00pm 21.0 18.0 12.4 58 4.8 ESE 20 30 11 16 1027.5 1027.5 0.0
23/12:30pm 21.0 17.8 11.1 53 5.4 ESE 19 24 10 13 1027.9 1027.9 0.0
23/12:00pm 21.6 18.1 11.0 51 5.8 ESE 20 30 11 16 1028.1 1028.1 0.0
23/11:30am 22.1 18.9 11.8 52 5.8 SE 20 30 11 16 1028.5 1028.5 0.0
23/11:00am 20.5 17.6 10.9 54 5.2 SE 17 24 9 13 1029.0 1029.0 0.0
23/10:30am 20.8 17.4 10.6 52 5.6 SSE 19 26 10 14 1029.2 1029.2 0.0
23/10:00am 21.8 18.4 11.2 51 5.8 SE 20 30 11 16 1029.2 1029.2 0.0
23/09:30am 20.4 17.8 11.9 58 4.7 S 17 26 9 14 1029.3 1029.3 0.0
23/09:00am 19.3 16.6 11.6 61 4.2 S 17 26 9 14 1029.3 1029.3 1.6
23/08:30am 19.1 16.3 11.2 60 4.3 S 17 24 9 13 1029.1 1029.1 1.6
23/08:00am 19.1 16.3 11.2 60 4.3 SSW 17 26 9 14 1029.0 1029.0 1.6
23/07:30am 17.4 15.3 11.0 66 3.4 SSW 13 20 7 11 1028.9 1028.9 1.6
23/07:00am 16.5 14.6 10.4 67 3.2 SSW 11 15 6 8 1028.4 1028.4 1.6
23/06:30am 16.0 13.6 9.9 67 3.2 SSW 13 19 7 10 1028.0 1028.0 1.6
23/06:00am 15.9 12.6 9.6 66 3.3 SSW 17 22 9 12 1027.9 1027.9 1.6
23/05:30am 15.6 12.7 9.5 67 3.2 SSW 15 20 8 11 1027.8 1027.8 1.6
23/05:00am 15.7 12.8 9.6 67 3.1 SSW 15 20 8 11 1027.7 1027.7 1.6
23/04:30am 15.4 12.5 9.5 68 3.0 SSW 15 19 8 10 1027.4 1027.4 1.6
23/04:00am 15.5 12.6 9.6 68 3.0 SSW 15 19 8 10 1027.1 1027.1 1.6
23/03:30am 15.8 13.0 9.9 68 3.1 S 15 20 8 11 1026.9 1026.9 1.6
23/03:00am 15.6 13.0 10.6 72 2.6 S 15 20 8 11 1027.0 1027.0 1.6
23/02:30am 15.7 13.5 10.9 73 2.6 S 13 17 7 9 1027.2 1027.2 1.6
23/02:00am 16.0 13.9 11.0 72 2.7 S 13 19 7 10 1027.3 1027.3 1.6
23/01:30am 16.1 14.4 11.3 73 2.6 SSW 11 13 6 7 1027.6 1027.6 1.6
23/01:00am 15.7 14.5 11.5 76 2.2 S 9 13 5 7 1027.8 1027.8 1.6
23/12:30am 16.0 14.9 12.0 77 2.2 SSW 9 11 5 6 1027.9 1027.9 1.6
23/12:00am 16.2 15.5 12.0 76 2.3 SW 7 11 4 6 1028.2 1028.2 1.6
 
Date/Time
EST
Temp
°C
App
Temp
°C
Dew
Point
Rel
Hum
%
Delta-T
°C
Wind Press
QNH
hPa
Press
MSL
hPa
Rain
since 9 am
mm
Dir
 
Spd
km/h
Gust
km/h
Spd
kts
Gust
kts
22/11:30pm 16.3 14.4 11.7 74 2.5 S 13 17 7 9 1028.3 1028.3 1.6
22/11:00pm 15.9 14.2 11.1 73 2.6 S 11 17 6 9 1028.4 1028.4 1.6
22/10:30pm 17.0 15.3 11.1 68 3.2 SSE 11 15 6 8 1028.8 1028.8 1.6
22/10:00pm 17.9 15.8 11.0 64 3.7 SE 13 17 7 9 1029.1 1029.1 1.6
22/09:30pm 18.4 15.0 10.7 61 4.1 SE 19 26 10 14 1029.1 1029.1 1.6
22/09:00pm 18.3 14.8 10.9 62 4.0 SE 20 28 11 15 1028.8 1028.8 1.6
22/08:30pm 18.7 15.2 11.0 61 4.2 SE 20 28 11 15 1028.5 1028.5 1.6
22/08:00pm 18.6 15.6 10.7 60 4.2 SSE 17 24 9 13 1028.4 1028.4 1.6
22/07:30pm 18.6 15.1 10.9 61 4.2 SSE 20 28 11 15 1028.4 1028.4 1.6
22/07:00pm 18.2 15.1 11.5 65 3.6 SSE 19 32 10 17 1028.3 1028.3 1.6
22/06:30pm 16.8 15.0 12.1 74 2.6 S 13 15 7 8 1028.1 1028.1 1.6
22/06:00pm 16.8 14.4 12.5 76 2.4 SSE 17 24 9 13 1028.1 1028.1 1.6
22/05:30pm 17.6 15.7 11.8 69 3.2 S 13 20 7 11 1027.6 1027.6 1.6
22/05:00pm 17.7 14.6 11.7 68 3.3 S 19 28 10 15 1027.6 1027.6 1.6
22/04:30pm 18.1 14.4 12.8 71 3.0 SSE 24 33 13 18 1027.4 1027.4 1.6
22/04:00pm 18.3 15.6 13.6 74 2.7 SSE 20 28 11 15 1027.2 1027.2 1.6
22/03:30pm 19.0 15.0 13.0 68 3.4 SSE 26 44 14 24 1027.0 1027.0 1.6
22/03:00pm 20.0 15.5 12.7 63 4.1 SSE 28 35 15 19 1026.9 1026.9 1.6
22/02:30pm 20.7 16.2 12.7 60 4.5 SE 28 37 15 20 1026.9 1026.9 1.6
22/02:00pm 20.1 15.7 12.8 63 4.1 SE 28 35 15 19 1027.0 1027.0 1.6
22/01:30pm 20.0 15.3 13.2 65 3.9 SE 30 39 16 21 1027.2 1027.2 1.6
22/01:00pm 20.5 17.4 15.5 73 3.0 SE 26 35 14 19 1027.6 1027.6 1.6
22/12:30pm 17.8 12.7 13.7 77 2.3 SE 33 43 18 23 1028.0 1028.0 1.6
22/12:00pm 19.7 14.7 13.4 67 3.6 SE 32 43 17 23 1028.1 1028.1 1.6
22/11:53am 20.0 16.2 14.6 71 3.1 SE 28 43 15 23 1028.2 1028.2 1.6
22/11:36am 18.2 18.5 14.9 81 1.9 SSE 7 24 4 13 1028.3 1028.3 1.4
22/11:30am 17.4 17.7 14.5 83 1.7 SSE 6 24 3 13 1028.4 1028.4 1.4
22/11:12am 17.3 14.6 13.6 79 2.1 E 20 28 11 15 1028.8 1028.8 0.6
22/11:00am 18.9 15.2 12.6 67 3.5 SE 24 32 13 17 1028.8 1028.8 0.0
22/10:30am 20.2 17.5 12.9 63 4.1 SSE 19 26 10 14 1028.7 1028.7 0.0
22/10:00am 19.7 16.2 13.4 67 3.6 SE 24 35 13 19 1028.9 1028.9 0.0
22/09:30am 18.8 16.6 13.2 70 3.2 S 17 24 9 13 1028.9 1028.9 0.0
22/09:00am 17.9 15.6 13.0 73 2.7 S 17 24 9 13 1028.9 1028.9 3.4
22/08:30am 17.7 15.9 13.2 75 2.5 S 15 22 8 12 1028.7 1028.7 3.4
22/08:00am 17.5 14.8 12.8 74 2.6 S 19 26 10 14 1028.5 1028.5 3.4
22/07:30am 17.0 14.8 13.3 79 2.1 S 17 24 9 13 1028.3 1028.3 3.4
22/07:00am 16.3 14.4 13.0 81 1.8 S 15 24 8 13 1028.0 1028.0 3.4
22/06:30am 15.7 13.3 12.8 83 1.6 S 17 24 9 13 1027.7 1027.7 3.4
22/06:00am 14.9 14.2 13.1 89 1.0 SSW 9 11 5 6 1027.4 1027.4 3.4
22/05:30am 15.0 13.5 13.2 89 1.0 SSW 13 17 7 9 1027.2 1027.2 3.4
22/05:00am 14.4 12.3 12.3 87 1.1 SSW 15 20 8 11 1027.1 1027.1 3.4
22/04:57am 14.4 12.7 12.3 87 1.1 SSW 13 17 7 9 1026.9 1026.9 3.4
22/04:38am 14.6 13.0 11.7 83 1.6 S 11 13 6 7 1026.7 1026.7 3.2
22/04:30am 14.8 13.3 11.8 82 1.6 SSW 11 15 6 8 1026.6 1026.6 2.8
22/04:00am 15.5 12.6 12.4 82 1.7 ESE 19 28 10 15 1026.6 1026.6 2.8
22/03:30am 14.5 13.7 11.6 83 1.6 S 7 11 4 6 1026.4 1026.4 2.8
22/03:00am 14.8 13.9 11.4 80 1.8 SW 7 9 4 5 1026.5 1026.5 2.8
22/02:30am 15.2 14.0 11.6 79 1.9 SW 9 11 5 6 1026.6 1026.6 2.8
22/02:00am 15.3 13.7 11.7 79 1.9 S 11 15 6 8 1026.8 1026.8 2.8
22/01:30am 15.3 14.7 12.2 82 1.7 S 7 13 4 7 1027.1 1027.1 2.8
22/01:00am 15.5 13.6 11.9 79 1.9 S 13 17 7 9 1027.2 1027.2 2.6
22/12:30am 15.3 13.7 11.7 79 1.9 S 11 17 6 9 1027.3 1027.3 2.6
22/12:00am 15.4 14.4 12.2 81 1.7 SSW 9 15 5 8 1027.6 1027.6 2.6
 
Date/Time
EST
Temp
°C
App
Temp
°C
Dew
Point
Rel
Hum
%
Delta-T
°C
Wind Press
QNH
hPa
Press
MSL
hPa
Rain
since 9 am
mm
Dir
 
Spd
km/h
Gust
km/h
Spd
kts
Gust
kts
21/11:30pm 15.3 14.0 12.6 84 1.5 SSW 11 13 6 7 1027.7 1027.7 2.6
21/11:00pm 14.7 13.2 12.0 84 1.5 S 11 17 6 9 1027.9 1027.9 2.6
21/10:30pm 15.0 13.6 12.3 84 1.5 S 11 15 6 8 1027.9 1027.9 2.6
21/10:00pm 15.2 13.9 12.5 84 1.5 S 11 17 6 9 1028.2 1028.2 2.6
21/09:30pm 15.3 14.0 12.6 84 1.5 S 11 17 6 9 1028.0 1028.0 2.6
21/09:00pm 15.3 13.8 13.0 86 1.3 SSW 13 20 7 11 1027.8 1027.8 2.6
21/08:30pm 15.1 13.6 13.1 88 1.1 SSW 13 19 7 10 1027.7 1027.7 2.6
21/08:00pm 15.1 13.4 13.6 91 0.8 SW 15 20 8 11 1027.9 1027.9 2.6
21/07:47pm 15.1 13.5 13.8 92 0.7 SW 15 20 8 11 1027.9 1027.9 2.6
21/07:30pm 15.0 13.7 13.7 92 0.7 SSW 13 20 7 11 1027.9 1027.9 2.4
21/07:00pm 15.2 11.8 13.6 90 0.9 S 24 35 13 19 1027.7 1027.7 0.8
21/06:40pm 15.7 13.2 14.1 90 0.9 SE 20 32 11 17 1027.4 1027.4 0.6
21/06:30pm 15.4 14.1 13.6 89 1.0 S 13 28 7 15 1027.1 1027.1 0.6
21/06:23pm 15.5 13.3 13.3 87 1.2 SSE 17 28 9 15 1027.1 1027.1 0.6
21/06:04pm 16.0 13.2 13.1 83 1.6 SSE 20 35 11 19 1026.8 1026.8 0.4
21/06:00pm 17.0 14.8 13.3 79 2.1 S 17 26 9 14 1026.5 1026.5 0.0
21/05:30pm 16.9 13.5 13.8 82 1.8 SSE 24 39 13 21 1026.3 1026.3 0.0
21/05:00pm 17.4 12.6 12.9 75 2.5 SSE 30 44 16 24 1025.8 1025.8 0.0
21/04:30pm 18.4 14.9 12.2 67 3.4 SSE 22 30 12 16 1025.8 1025.8 0.0
21/04:00pm 18.6 13.7 12.4 67 3.4 SE 30 37 16 20 1025.6 1025.6 0.0
21/03:30pm 20.2 15.9 12.2 60 4.5 SSE 26 39 14 21 1025.1 1025.1 0.0
21/03:00pm 20.9 16.1 11.5 55 5.2 SSE 28 41 15 22 1025.1 1025.1 0.0
21/02:30pm 20.9 16.1 11.5 55 5.2 SSE 28 39 15 21 1025.0 1025.0 0.0
21/02:00pm 21.2 16.2 12.1 56 5.1 SSE 30 37 16 20 1024.9 1024.9 0.0
21/01:30pm 21.4 15.9 11.7 54 5.4 SSE 32 41 17 22 1025.0 1025.0 0.0
21/01:00pm 21.8 15.9 10.6 49 6.1 SE 32 41 17 22 1025.2 1025.2 0.0
21/12:30pm 21.6 17.0 11.0 51 5.8 SSE 26 39 14 21 1025.7 1025.7 0.0
21/12:00pm 21.9 16.7 10.4 48 6.2 SSE 28 37 15 20 1025.7 1025.7 0.0
21/11:30am 22.0 16.7 11.1 50 6.0 SSE 30 43 16 23 1026.0 1026.0 0.0
21/11:00am 21.6 17.5 11.3 52 5.7 SSE 24 35 13 19 1026.3 1026.3 0.0
21/10:30am 21.7 17.0 12.0 54 5.4 SSE 28 43 15 23 1026.7 1026.7 0.0
21/10:00am 20.6 15.7 11.2 55 5.1 SSE 28 35 15 19 1026.8 1026.8 0.0
21/09:30am 21.1 17.9 12.0 56 5.1 S 20 30 11 16 1026.9 1026.9 0.0
21/09:00am 19.7 15.4 10.7 56 4.9 S 24 33 13 18 1026.9 1026.9 0.0
21/08:30am 19.0 15.3 10.0 56 4.8 S 20 32 11 17 1026.8 1026.8 0.0
21/08:00am 18.6 14.5 10.2 58 4.5 SSW 22 35 12 19 1026.6 1026.6 0.0
21/07:30am 18.3 16.2 11.1 63 3.9 SSW 13 20 7 11 1026.6 1026.6 0.0
21/07:00am 16.5 13.1 10.6 68 3.1 SSW 19 26 10 14 1026.3 1026.3 0.0
21/06:30am 15.0 12.5 9.8 71 2.7 SSW 13 22 7 12 1026.2 1026.2 0.0
21/06:00am 14.6 12.1 9.6 72 2.6 SSW 13 17 7 9 1025.8 1025.8 0.0
21/05:30am 14.1 11.9 9.3 73 2.4 SSW 11 17 6 9 1025.7 1025.7 0.0
21/05:00am 14.1 11.0 8.7 70 2.7 S 15 19 8 10 1025.4 1025.4 0.0
21/04:30am 14.6 11.9 9.0 69 2.8 SSW 13 17 7 9 1024.6 1024.6 0.0
21/04:00am 14.7 11.9 8.6 67 3.1 SSW 13 20 7 11 1024.4 1024.4 0.0
21/03:30am 14.6 12.3 9.0 69 2.8 SSW 11 19 6 10 1024.3 1024.3 0.0
21/03:00am 13.6 11.5 8.2 70 2.7 SSW 9 13 5 7 1024.3 1024.3 0.0
21/02:30am 14.8 12.0 8.5 66 3.2 SSW 13 19 7 10 1024.4 1024.4 0.0
21/02:00am 14.4 11.7 8.8 69 2.8 SSW 13 20 7 11 1024.7 1024.7 0.0
21/01:30am 12.8 11.3 9.1 78 1.9 SSW 7 9 4 5 1024.9 1024.9 0.0
21/01:00am 13.4 13.2 9.1 75 2.2 CALM 0 6 0 3 1025.3 1025.3 0.0
21/12:30am 14.1 12.6 9.1 72 2.5 SSW 7 9 4 5 1025.4 1025.4 0.0
21/12:00am 14.7 12.5 9.3 70 2.8 SSW 11 13 6 7 1025.3 1025.3 0.0
 
Date/Time
EST
Temp
°C
App
Temp
°C
Dew
Point
Rel
Hum
%
Delta-T
°C
Wind Press
QNH
hPa
Press
MSL
hPa
Rain
since 9 am
mm
Dir
 
Spd
km/h
Gust
km/h
Spd
kts
Gust
kts
20/11:30pm 14.7 13.2 9.3 70 2.8 SSW 7 11 4 6 1025.2 1025.2 0.0
20/11:00pm 14.6 12.5 9.8 73 2.5 S 11 15 6 8 1025.1 1025.1 0.0
20/10:30pm 14.4 12.7 9.8 74 2.4 SSW 9 13 5 7 1025.2 1025.2 0.0
20/10:00pm 14.9 14.0 10.7 76 2.2 SW 6 7 3 4 1025.4 1025.4 0.0
20/09:30pm 15.7 14.0 10.0 69 3.0 SSW 9 11 5 6 1025.4 1025.4 0.0
20/09:00pm 16.3 14.3 10.2 67 3.2 SSW 11 15 6 8 1025.1 1025.1 0.0
20/08:30pm 16.0 14.3 9.9 67 3.2 SSW 9 13 5 7 1024.7 1024.7 0.0
20/08:00pm 16.3 14.6 9.9 66 3.3 S 9 11 5 6 1024.4 1024.4 0.0
20/07:30pm 16.5 14.8 9.7 64 3.6 S 9 15 5 8 1024.1 1024.1 0.0
20/07:00pm 16.6 14.5 9.8 64 3.5 S 11 20 6 11 1023.6 1023.6 0.0
20/06:30pm 17.6 15.2 10.2 62 3.9 SSE 13 19 7 10 1023.1 1023.1 0.0
20/06:00pm 18.1 15.8 10.5 61 4.1 SSE 13 19 7 10 1022.7 1022.7 0.0
20/05:30pm 18.6 15.2 10.4 59 4.4 SSE 19 26 10 14 1022.0 1022.0 0.0
20/05:00pm 18.8 14.6 9.8 56 4.8 SSE 22 30 12 16 1021.5 1021.5 0.0
20/04:30pm 19.6 15.0 9.8 53 5.2 SE 24 32 13 17 1020.8 1020.8 0.0
20/04:00pm 20.1 15.6 9.9 52 5.4 SSE 24 32 13 17 1020.8 1020.8 0.0
20/03:30pm 20.3 15.0 9.8 51 5.6 SE 28 44 15 24 1020.3 1020.3 0.0
20/03:00pm 20.1 15.1 9.4 50 5.7 SE 26 35 14 19 1020.3 1020.3 0.0
20/02:30pm 19.8 14.4 9.4 51 5.5 SE 28 41 15 22 1020.3 1020.3 0.0

Other Formats:

Comma delimited format used in spreadsheet applications
http://www.bom.gov.au/fwo/IDQ60801/IDQ60801.94592.axf

JavaScript Object Notation format (JSON) in row-major order
http://www.bom.gov.au/fwo/IDQ60801/IDQ60801.94592.json